x

Southern Lake Huron (45149) Wave Buoy

10:00am - Fri 1st Aug 2014 All times are CDT. -5 hours from GMT.

  • Sig Wave height 0.7ft
  • Peak Period 2s
  • Wind
    9mph
  • Air Temp 66°f
  • Sea Pressure 1018.8mb
  • Southern Lake Huron
  • Southern Lake Huron

More Historic Weather Station data

Upgrade to MSW Pro to gain access to the past 30 days of data for over 8000 Wavebouys and Weather Stations around the globe.

Join Pro

Comparision Forecast

View Surf forecast
   
Fri 08/01 10:00am 0.7ft 2s 9
mph
1018.8mb 66f
9:00am 0.7ft 3s 9 11 mph 1018.6mb 65f
8:00am 0.7ft 3s 9 11 mph 1018.7mb 65f
7:00am 0.7ft 3s 7 9 mph 1018.3mb 65f
6:00am 1ft 3s 4 7 mph 1017.9mb 65f
5:00am 1ft 3s 9 11 mph 1017.4mb 65f
4:00am 1ft 3s 11 13 mph 1017.2mb 65f
3:00am 1.3ft 2s 11 13 mph 1016.8mb 65f
2:00am 1ft 3s 11 13 mph 1016.9mb 66f
1:00am 1ft 2s 9 11 mph 1016.8mb 65f
12:00am 0.7ft 2s 11 13 mph 1017mb 66f
Thu 07/31 11:00pm 1ft 2s 9 13 mph 1016.7mb 66f
10:00pm 0.7ft 2s 13
mph
1016.6mb 66f
9:00pm 0.7ft 2s 9 11 mph 1016.5mb 67f
8:00pm 0.7ft 2s 7 9 mph 1016.1mb 67f
7:00pm 0.7ft 2s 4
mph
1015.9mb 67f
6:00pm 0.7ft 3s 7
mph
1015.6mb 68f
5:00pm 0.7ft 3s 7 9 mph 1015.8mb 67f
4:00pm 0.7ft 2s 9
mph
1015.6mb 68f
3:00pm 0.7ft 2s 7
mph
1015.7mb 67f
2:00pm 1ft 3s 9 11 mph 1016mb 67f
1:00pm 1ft 3s 11
mph
1016.1mb 65f
12:00pm 1ft 2s 11 13 mph 1016.2mb 64f
11:00am 1ft 2s 11
mph
1016.1mb 63f
10:00am 0.7ft 2s 9
mph
1016.1mb 63f
9:00am 0.7ft 3s 9 11 mph 1016mb 62f
8:00am 1ft 3s 11 13 mph 1015.8mb 62f
7:00am 1ft 3s 9 11 mph 1015.8mb 61f
6:00am 1.3ft 3s 11 13 mph 1015.4mb 60f
5:00am 1.3ft 2s 9 13 mph 1015.1mb 61f
4:00am 1.3ft 3s 11 13 mph 1014.4mb 61f
3:00am 1.6ft 4s 13 16 mph 1014.3mb 61f
2:00am 2ft 4s 16 18 mph 1015mb 60f
1:00am 2.5ft 3s 18 20 mph 1015.6mb 59f
12:00am 1.3ft 3s 27 31 mph 1015.5mb 59f
Wed 07/30 11:00pm 1ft 2s 13 16 mph 1014.3mb 65f
10:00pm 1ft 4s 11 13 mph 1015mb 65f
9:00pm 0.7ft 4s 9
mph
1015.2mb 64f
8:00pm 1ft 4s 7 9 mph 1015.1mb 63f
7:00pm 1ft 4s 4 7 mph 1015.1mb 63f
6:00pm 1ft 4s 4 7 mph 1015.3mb 62f
5:00pm 1.3ft 4s 7 9 mph 1015.3mb 62f
4:00pm 1.3ft 4s 4 7 mph 1015.4mb 62f
3:00pm 1ft 4s 4 7 mph 1015.5mb 62f
2:00pm 1ft 3s 7 9 mph 1015.8mb 62f
1:00pm 1ft 3s 4 7 mph 1016mb 62f
12:00pm 1ft 3s 4
mph
1016mb 62f
11:00am 1ft 3s 7 9 mph 1016.1mb 61f
10:00am 1ft 3s 7
mph
1015.8mb 62f
9:00am 1.3ft 3s 9 11 mph 1015.5mb 62f
8:00am 1.3ft 3s 13 16 mph 1015.2mb 62f
7:00am 1.3ft 3s 11 13 mph 1014.6mb 63f
6:00am 1.3ft 3s 11 13 mph 1014.2mb 62f
5:00am 1.3ft 3s 9 11 mph 1013.7mb 63f
4:00am 1.6ft 3s 9 11 mph 1013.4mb 63f
3:00am 1.6ft 3s 9
mph
1013.4mb 62f
2:00am 2ft 4s 11 13 mph 1013.4mb 63f
1:00am 1.6ft 4s 11 13 mph 1013.5mb 63f
12:00am 1.3ft 3s 13 16 mph 1013.6mb 63f
Tue 07/29 11:00pm 1ft 2s 11 16 mph 1013.6mb 64f
10:00pm 1ft 2s 13 16 mph 1013.5mb 65f
9:00pm 1ft 2s 9
mph
1013.4mb 65f
8:00pm 1ft 2s 7
mph
1013.2mb 65f
7:00pm 1ft 3s 9
mph
1013.3mb 65f
6:00pm 1.3ft 3s 11 13 mph 1013.2mb 66f
5:00pm 1.3ft 3s 11 13 mph 1013.3mb 65f
4:00pm 1.3ft 3s 11
mph
1013.3mb 64f
3:00pm 1.3ft 3s 13 16 mph 1013.7mb 64f
2:00pm 1.3ft 3s 11 13 mph 1014mb 63f
1:00pm 1.3ft 3s 11 13 mph 1014.3mb 63f
12:00pm 1.6ft 4s 9 11 mph 1014.4mb 63f
11:00am 1.6ft 3s 9 11 mph 1014.7mb 62f
10:00am 2ft 4s 11
mph
1014.8mb 61f
9:00am 2ft 4s 9 11 mph 1014.7mb 61f
8:00am 2.5ft 5s 11 13 mph 1014.7mb 60f
7:00am 2.5ft 5s 11 13 mph 1014.2mb 60f
6:00am 2.5ft 5s 13 16 mph 1014.2mb 60f
5:00am 2.5ft 5s 11 13 mph 1013.8mb 60f
4:00am  -   -  13
mph
1013.8mb 61f
3:00am 3ft 5s 13 18 mph 1013.7mb 62f
2:00am 3.5ft 5s 13 16 mph 1013.7mb 62f
1:00am 4ft 5s 18
mph
1013.9mb 62f
12:00am 3.5ft 5s 18 22 mph 1014mb 62f
Mon 07/28 11:00pm 4.5ft 5s 18 22 mph 1014.2mb 62f
10:00pm 4.5ft 5s 18 22 mph 1014.6mb 62f
8:00pm 4.5ft 6s 20 25 mph 1014.2mb 61f
7:00pm 5ft 6s 20 25 mph 1014.5mb 60f
5:00pm 6ft 6s 20 27 mph 1014.3mb 60f